Time;durP1;ratioP1;P1;durP2;ratioP2;P2;SDS_P1;SDS_P2;PMS_P1;PMS_P2;Temp;Humidity;BMP_temperature;BMP_pressure;BME280_temperature;BME280_humidity;BME280_pressure;Samples;Min_cycle;Max_cycle;Signal;HPM_P1;HPM_P2
2023/07/07 00:00:40;;;;;;;2.00;1.60;;;;;;;;;;6209925;28;20053;-83
2023/07/07 00:03:41;;;;;;;3.72;1.67;;;;;;;;;;6209900;28;20050;-82
2023/07/07 00:06:43;;;;;;;2.85;1.65;;;;;;;;;;6215033;28;20053;-82
2023/07/07 00:09:45;;;;;;;2.63;1.67;;;;;;;;;;6216888;28;20069;-81
2023/07/07 00:12:47;;;;;;;2.03;1.58;;;;;;;;;;6215660;28;20052;-82
2023/07/07 00:15:48;;;;;;;2.40;1.77;;;;;;;;;;6218101;28;20076;-83
2023/07/07 00:18:50;;;;;;;2.50;1.80;;;;;;;;;;6222110;28;20527;-81
2023/07/07 00:21:58;;;;;;;2.85;1.60;;;;;;;;;;6210645;28;20072;-80
2023/07/07 00:25:00;;;;;;;4.28;1.77;;;;;;;;;;6216840;28;20074;-82
2023/07/07 00:28:02;;;;;;;3.03;2.08;;;;;;;;;;6216100;28;20049;-80
2023/07/07 00:31:04;;;;;;;2.97;1.75;;;;;;;;;;6212301;28;20053;-82
2023/07/07 00:34:06;;;;;;;3.30;1.73;;;;;;;;;;6218159;28;20046;-81
2023/07/07 00:37:08;;;;;;;2.97;1.63;;;;;;;;;;6211200;28;20444;-81
2023/07/07 00:40:10;;;;;;;2.75;1.70;;;;;;;;;;6211113;28;20056;-81
2023/07/07 00:43:17;;;;;;;4.55;1.77;;;;;;;;;;6216077;28;20057;-83
2023/07/07 00:46:19;;;;;;;3.55;1.70;;;;;;;;;;6216984;28;20041;-81
2023/07/07 00:49:21;;;;;;;1.88;1.40;;;;;;;;;;6201438;28;20052;-81
2023/07/07 00:52:23;;;;;;;2.20;1.40;;;;;;;;;;6219634;28;20057;-81
2023/07/07 00:55:39;;;;;;;3.00;1.55;;;;;;;;;;6221123;28;20042;-80
2023/07/07 00:58:42;;;;;;;2.30;1.48;;;;;;;;;;6216786;28;20084;-80
2023/07/07 01:01:43;;;;;;;2.42;1.58;;;;;;;;;;6212030;28;20123;-80
2023/07/07 01:04:48;;;;;;;4.20;1.80;;;;;;;;;;6212546;28;20508;-80
2023/07/07 01:07:51;;;;;;;2.65;1.75;;;;;;;;;;6211029;28;20463;-81
2023/07/07 01:10:53;;;;;;;3.47;1.77;;;;;;;;;;6213899;28;20057;-83
2023/07/07 01:13:59;;;;;;;3.35;1.80;;;;;;;;;;6195266;28;20053;-83
2023/07/07 01:17:31;;;;;;;3.22;1.77;;;;;;;;;;6211622;28;20046;-80
2023/07/07 01:21:03;;;;;;;2.50;1.52;;;;;;;;;;6203241;28;20070;-81
2023/07/07 01:24:24;;;;;;;3.25;1.77;;;;;;;;;;6210445;28;20049;-80
2023/07/07 01:27:32;;;;;;;2.33;1.65;;;;;;;;;;6207489;28;20798;-81
2023/07/07 01:30:55;;;;;;;2.70;1.80;;;;;;;;;;6225668;28;20056;-82
2023/07/07 01:33:59;;;;;;;2.05;1.48;;;;;;;;;;6227110;28;20508;-81
2023/07/07 01:37:01;;;;;;;2.97;1.70;;;;;;;;;;6207013;28;20048;-80
2023/07/07 01:40:03;;;;;;;2.60;1.58;;;;;;;;;;6208631;28;20045;-80
2023/07/07 01:43:23;;;;;;;2.27;1.60;;;;;;;;;;6211733;28;20412;-80
2023/07/07 01:46:38;;;;;;;2.63;1.75;;;;;;;;;;6206619;28;20496;-82
2023/07/07 01:49:55;;;;;;;3.03;2.00;;;;;;;;;;6223246;28;20034;-81
2023/07/07 01:53:08;;;;;;;4.00;1.75;;;;;;;;;;6213502;28;20120;-81
2023/07/07 01:56:12;;;;;;;2.63;1.70;;;;;;;;;;6230805;28;20046;-81
2023/07/07 01:59:15;;;;;;;3.90;2.08;;;;;;;;;;6207813;28;20037;-80
2023/07/07 02:02:17;;;;;;;2.75;1.65;;;;;;;;;;6207920;28;20042;-80
2023/07/07 02:05:19;;;;;;;2.50;1.95;;;;;;;;;;6192882;28;20123;-80
2023/07/07 02:08:21;;;;;;;2.83;1.50;;;;;;;;;;6203525;28;20184;-80
2023/07/07 02:11:22;;;;;;;3.30;1.90;;;;;;;;;;6206401;28;20053;-81
2023/07/07 02:14:24;;;;;;;3.85;1.83;;;;;;;;;;6189693;28;20121;-80
2023/07/07 02:17:28;;;;;;;3.85;1.63;;;;;;;;;;6213324;28;20042;-82
2023/07/07 02:20:31;;;;;;;2.65;1.60;;;;;;;;;;6213769;28;20426;-82
2023/07/07 02:23:33;;;;;;;2.35;1.60;;;;;;;;;;6177008;28;20042;-82
2023/07/07 02:26:35;;;;;;;2.67;1.80;;;;;;;;;;6208701;28;20046;-82
2023/07/07 02:29:37;;;;;;;3.72;1.70;;;;;;;;;;6210021;28;20046;-83
2023/07/07 02:32:39;;;;;;;3.65;2.70;;;;;;;;;;6216378;28;20053;-82
2023/07/07 02:35:41;;;;;;;2.92;1.83;;;;;;;;;;6224608;28;20495;-83
2023/07/07 02:38:42;;;;;;;2.45;1.60;;;;;;;;;;6223443;28;20042;-82
2023/07/07 02:41:44;;;;;;;3.13;1.98;;;;;;;;;;6214476;28;20050;-81
2023/07/07 02:44:46;;;;;;;3.47;1.75;;;;;;;;;;6211334;28;20046;-81
2023/07/07 02:47:47;;;;;;;2.85;1.85;;;;;;;;;;6213517;28;20100;-81
2023/07/07 02:51:00;;;;;;;2.60;1.80;;;;;;;;;;6196907;28;20049;-81
2023/07/07 02:54:02;;;;;;;3.60;1.70;;;;;;;;;;6227803;28;20053;-83
2023/07/07 02:57:05;;;;;;;2.97;1.75;;;;;;;;;;6230159;28;20542;-83
2023/07/07 03:00:09;;;;;;;;;;;;;;;;;;6212894;28;20042;-82
2023/07/07 03:03:11;;;;;;;3.03;1.55;;;;;;;;;;6209964;28;20299;-81
2023/07/07 03:06:19;;;;;;;2.40;1.50;;;;;;;;;;6197558;28;20038;-81
2023/07/07 03:09:23;;;;;;;4.50;2.08;;;;;;;;;;6209985;28;20649;-82
2023/07/07 03:12:26;;;;;;;5.47;1.95;;;;;;;;;;6196446;28;20051;-79
2023/07/07 03:15:39;;;;;;;3.30;1.80;;;;;;;;;;6185759;28;20096;-78
2023/07/07 03:18:48;;;;;;;2.92;1.83;;;;;;;;;;6201162;28;20042;-79
2023/07/07 03:21:54;;;;;;;2.47;1.55;;;;;;;;;;6208901;28;20045;-80
2023/07/07 03:25:03;;;;;;;2.40;1.63;;;;;;;;;;6206699;28;20050;-81
2023/07/07 03:28:34;;;;;;;2.28;1.70;;;;;;;;;;6211277;28;20490;-79
2023/07/07 03:31:36;;;;;;;2.85;1.88;;;;;;;;;;6206607;28;20524;-79
2023/07/07 03:34:41;;;;;;;4.40;1.77;;;;;;;;;;6202260;28;20061;-79
2023/07/07 03:37:45;;;;;;;2.30;1.40;;;;;;;;;;6200714;28;20536;-80
2023/07/07 03:40:48;;;;;;;2.93;1.83;;;;;;;;;;6206517;28;20042;-79
2023/07/07 03:43:59;;;;;;;3.03;1.80;;;;;;;;;;6209509;28;20053;-83
2023/07/07 03:47:03;;;;;;;4.22;2.55;;;;;;;;;;6202579;28;20038;-79
2023/07/07 03:50:07;;;;;;;4.43;2.00;;;;;;;;;;6222043;28;20504;-80
2023/07/07 03:53:09;;;;;;;2.65;1.88;;;;;;;;;;6176686;28;20445;-81
2023/07/07 03:56:13;;;;;;;2.85;1.80;;;;;;;;;;6211538;28;20042;-80
2023/07/07 03:59:15;;;;;;;4.00;1.80;;;;;;;;;;6212795;28;20384;-79
2023/07/07 04:02:17;;;;;;;3.78;2.00;;;;;;;;;;6216135;28;20054;-79
2023/07/07 04:05:19;;;;;;;3.03;1.95;;;;;;;;;;6207285;28;20052;-80
2023/07/07 04:08:23;;;;;;;3.35;2.00;;;;;;;;;;6213258;28;20046;-79
2023/07/07 04:11:26;;;;;;;3.70;2.08;;;;;;;;;;6206253;28;20125;-80
2023/07/07 04:14:29;;;;;;;4.95;2.83;;;;;;;;;;6208257;28;20073;-79
2023/07/07 04:17:31;;;;;;;3.13;1.98;;;;;;;;;;6211895;28;20080;-80
2023/07/07 04:20:33;;;;;;;3.30;1.70;;;;;;;;;;6211103;28;20049;-80
2023/07/07 04:23:37;;;;;;;2.38;1.70;;;;;;;;;;6191796;28;20046;-80
2023/07/07 04:26:39;;;;;;;3.65;1.75;;;;;;;;;;6187228;28;20053;-79
2023/07/07 04:29:41;;;;;;;3.15;1.77;;;;;;;;;;6210927;28;20133;-80
2023/07/07 04:32:43;;;;;;;2.72;2.00;;;;;;;;;;6213079;28;20048;-80
2023/07/07 04:35:44;;;;;;;3.05;2.20;;;;;;;;;;6210521;28;21764;-81
2023/07/07 04:38:46;;;;;;;4.22;2.28;;;;;;;;;;6208256;28;20527;-79
2023/07/07 04:41:50;;;;;;;4.57;2.13;;;;;;;;;;6214527;28;20061;-79
2023/07/07 04:44:52;;;;;;;3.70;2.15;;;;;;;;;;6209656;28;21070;-79
2023/07/07 04:47:54;;;;;;;3.88;2.10;;;;;;;;;;6212221;28;20049;-80
2023/07/07 04:50:58;;;;;;;2.50;1.77;;;;;;;;;;6197115;28;20073;-82
2023/07/07 04:54:01;;;;;;;3.10;1.85;;;;;;;;;;6215990;28;20043;-79
2023/07/07 04:57:03;;;;;;;2.97;2.00;;;;;;;;;;6216082;28;20046;-79
2023/07/07 05:00:07;;;;;;;3.63;2.00;;;;;;;;;;6210933;28;20061;-80
2023/07/07 05:03:09;;;;;;;3.28;2.00;;;;;;;;;;6212851;28;20171;-79
2023/07/07 05:06:12;;;;;;;4.30;2.22;;;;;;;;;;6210789;28;20046;-79
2023/07/07 05:09:16;;;;;;;3.47;2.10;;;;;;;;;;6225931;28;20049;-79
2023/07/07 05:12:18;;;;;;;3.47;2.00;;;;;;;;;;6212715;28;20049;-79
2023/07/07 05:15:23;;;;;;;4.28;2.13;;;;;;;;;;6210477;28;20046;-78
2023/07/07 05:18:25;;;;;;;3.45;2.15;;;;;;;;;;6205858;28;20050;-80
2023/07/07 05:21:27;;;;;;;3.63;2.38;;;;;;;;;;6206988;28;20050;-81
2023/07/07 05:24:29;;;;;;;2.58;1.70;;;;;;;;;;6207664;28;20054;-81
2023/07/07 05:27:31;;;;;;;5.97;1.90;;;;;;;;;;6207570;28;20516;-78
2023/07/07 05:30:32;;;;;;;5.70;2.20;;;;;;;;;;6212996;28;20042;-79
2023/07/07 05:33:36;;;;;;;3.05;1.95;;;;;;;;;;6210604;28;20060;-81
2023/07/07 05:36:38;;;;;;;3.95;1.80;;;;;;;;;;6203596;28;20054;-78
2023/07/07 05:39:40;;;;;;;6.85;2.00;;;;;;;;;;6207587;28;20061;-79
2023/07/07 05:42:42;;;;;;;7.63;2.15;;;;;;;;;;6209275;28;20057;-81
2023/07/07 05:45:44;;;;;;;7.70;2.35;;;;;;;;;;6210623;28;20053;-78
2023/07/07 05:48:46;;;;;;;7.60;2.27;;;;;;;;;;6190940;28;20104;-78
2023/07/07 05:51:49;;;;;;;11.30;2.13;;;;;;;;;;6193087;28;20527;-80
2023/07/07 05:54:51;;;;;;;8.52;2.72;;;;;;;;;;6207224;28;20135;-78
2023/07/07 05:57:53;;;;;;;6.95;2.25;;;;;;;;;;6208357;28;20049;-82
2023/07/07 06:00:54;;;;;;;6.32;2.30;;;;;;;;;;6205025;28;20500;-79
2023/07/07 06:03:56;;;;;;;9.98;2.70;;;;;;;;;;6208014;28;20053;-80
2023/07/07 06:06:58;;;;;;;11.15;2.72;;;;;;;;;;6205155;28;20117;-79
2023/07/07 06:10:00;;;;;;;10.02;2.67;;;;;;;;;;6205950;28;20133;-80
2023/07/07 06:13:04;;;;;;;12.82;2.70;;;;;;;;;;6176245;28;20042;-80
2023/07/07 06:16:06;;;;;;;12.80;3.17;;;;;;;;;;6189598;28;20053;-82
2023/07/07 06:19:08;;;;;;;11.10;2.30;;;;;;;;;;6206725;28;20272;-79
2023/07/07 06:22:10;;;;;;;12.30;2.58;;;;;;;;;;6207713;28;20393;-83
2023/07/07 06:25:11;;;;;;;9.80;2.45;;;;;;;;;;6205900;28;20053;-80
2023/07/07 06:28:16;;;;;;;6.93;2.20;;;;;;;;;;6208811;28;20046;-76
2023/07/07 06:31:18;;;;;;;5.35;1.80;;;;;;;;;;6200691;28;20046;-80
2023/07/07 06:34:20;;;;;;;8.32;2.35;;;;;;;;;;6206138;28;20042;-76
2023/07/07 06:37:22;;;;;;;10.35;2.15;;;;;;;;;;6203821;28;20041;-76
2023/07/07 06:40:24;;;;;;;8.65;2.22;;;;;;;;;;6201552;28;20042;-76
2023/07/07 06:43:25;;;;;;;14.95;2.40;;;;;;;;;;6209340;28;20054;-76
2023/07/07 06:46:27;;;;;;;12.30;2.50;;;;;;;;;;6206069;28;20061;-77
2023/07/07 06:49:29;;;;;;;10.10;2.28;;;;;;;;;;6205410;28;20120;-80
2023/07/07 06:52:31;;;;;;;7.97;1.92;;;;;;;;;;6205048;28;20049;-76
2023/07/07 06:55:32;;;;;;;8.57;2.30;;;;;;;;;;6202180;28;20057;-78
2023/07/07 06:58:34;;;;;;;9.73;2.38;;;;;;;;;;6208694;28;20497;-77
2023/07/07 07:01:36;;;;;;;14.38;2.72;;;;;;;;;;6205604;28;20085;-77
2023/07/07 07:04:38;;;;;;;12.10;2.17;;;;;;;;;;6199172;28;20539;-78
2023/07/07 07:07:40;;;;;;;6.32;1.90;;;;;;;;;;6212962;28;20080;-75
2023/07/07 07:10:42;;;;;;;6.18;2.25;;;;;;;;;;6207103;28;20064;-78
2023/07/07 07:13:43;;;;;;;7.75;2.05;;;;;;;;;;6206244;28;20042;-74
2023/07/07 07:16:45;;;;;;;8.60;2.00;;;;;;;;;;6211702;28;20048;-79
2023/07/07 07:19:47;;;;;;;3.95;2.20;;;;;;;;;;6210127;28;20045;-79
2023/07/07 07:22:49;;;;;;;9.00;1.90;;;;;;;;;;6210516;28;20042;-80
2023/07/07 07:25:51;;;;;;;5.78;2.13;;;;;;;;;;6207157;28;20053;-80
2023/07/07 07:28:53;;;;;;;3.53;1.75;;;;;;;;;;6194141;28;20060;-79
2023/07/07 07:31:55;;;;;;;5.47;2.17;;;;;;;;;;6224418;28;20038;-78
2023/07/07 07:34:56;;;;;;;8.38;2.03;;;;;;;;;;6205152;28;20042;-78
2023/07/07 07:37:58;;;;;;;2.13;1.58;;;;;;;;;;6211729;28;20042;-79
2023/07/07 07:41:00;;;;;;;4.18;1.67;;;;;;;;;;6196855;28;20049;-79
2023/07/07 07:44:02;;;;;;;3.10;1.65;;;;;;;;;;6211392;28;20048;-78
2023/07/07 07:47:04;;;;;;;12.13;1.77;;;;;;;;;;6207515;28;20739;-78
2023/07/07 07:50:06;;;;;;;3.33;1.67;;;;;;;;;;6232434;28;20050;-80
2023/07/07 07:53:08;;;;;;;2.38;1.60;;;;;;;;;;6200741;28;20049;-81
2023/07/07 07:56:10;;;;;;;3.88;1.58;;;;;;;;;;6213888;28;20061;-79
2023/07/07 07:59:12;;;;;;;3.67;1.85;;;;;;;;;;6214191;28;20427;-79
2023/07/07 08:02:14;;;;;;;4.60;1.80;;;;;;;;;;6215342;28;20046;-78
2023/07/07 08:05:16;;;;;;;1.80;1.60;;;;;;;;;;6217360;28;20050;-79
2023/07/07 08:08:18;;;;;;;3.22;1.42;;;;;;;;;;6217581;28;20051;-78
2023/07/07 08:11:29;;;;;;;4.30;1.60;;;;;;;;;;6222991;28;20054;-79
2023/07/07 08:14:32;;;;;;;2.97;1.60;;;;;;;;;;6235882;28;20046;-79
2023/07/07 08:17:35;;;;;;;2.88;1.80;;;;;;;;;;6197222;28;20075;-79
2023/07/07 08:20:36;;;;;;;3.92;1.73;;;;;;;;;;6223601;28;20049;-79
2023/07/07 08:23:38;;;;;;;3.27;1.60;;;;;;;;;;6226130;28;20629;-78
2023/07/07 08:26:40;;;;;;;3.13;1.50;;;;;;;;;;6205925;28;20420;-78
2023/07/07 08:29:43;;;;;;;2.85;1.50;;;;;;;;;;6216727;28;20054;-79
2023/07/07 08:32:44;;;;;;;;;;;;;;;;;;6192073;28;20092;-78
2023/07/07 08:35:46;;;;;;;2.33;1.60;;;;;;;;;;6208715;28;19928;-81
2023/07/07 08:38:48;;;;;;;3.50;1.70;;;;;;;;;;6210864;28;20042;-79
2023/07/07 08:41:56;;;;;;;4.50;1.83;;;;;;;;;;6211325;28;20049;-78
2023/07/07 08:45:01;;;;;;;3.63;1.50;;;;;;;;;;6210828;28;20046;-81
2023/07/07 08:48:23;;;;;;;3.33;1.63;;;;;;;;;;6204902;28;20076;-80
2023/07/07 08:51:36;;;;;;;3.47;1.90;;;;;;;;;;6209120;28;20065;-80
2023/07/07 08:54:51;;;;;;;3.75;1.90;;;;;;;;;;6211946;28;20156;-78
2023/07/07 08:58:06;;;;;;;3.30;1.65;;;;;;;;;;6211054;28;20046;-79
2023/07/07 09:01:41;;;;;;;2.78;1.77;;;;;;;;;;6205111;28;20172;-79
2023/07/07 09:04:55;;;;;;;;;;;;;;;;;;6215907;28;20065;-79
2023/07/07 09:08:31;;;;;;;2.20;1.50;;;;;;;;;;6204639;28;19928;-78
2023/07/07 09:12:12;;;;;;;2.42;1.67;;;;;;;;;;6179156;28;20176;-80
2023/07/07 09:15:28;;;;;;;4.00;1.60;;;;;;;;;;6205806;28;20049;-79
2023/07/07 09:18:36;;;;;;;2.55;1.60;;;;;;;;;;6205821;28;20050;-79
2023/07/07 09:21:45;;;;;;;3.17;1.67;;;;;;;;;;6194278;28;20053;-80
2023/07/07 09:24:57;;;;;;;3.72;1.73;;;;;;;;;;6207526;28;20053;-84
2023/07/07 09:28:02;;;;;;;1.52;1.35;;;;;;;;;;6202883;28;20052;-78
2023/07/07 09:31:31;;;;;;;3.25;1.60;;;;;;;;;;6207335;28;20064;-80
2023/07/07 09:34:34;;;;;;;2.85;1.50;;;;;;;;;;6197528;28;20042;-82
2023/07/07 09:37:50;;;;;;;3.40;1.77;;;;;;;;;;6217413;28;20117;-80
2023/07/07 09:41:12;;;;;;;3.10;1.85;;;;;;;;;;6215861;28;20110;-80
2023/07/07 09:44:39;;;;;;;2.63;1.48;;;;;;;;;;6214324;28;20096;-80
2023/07/07 09:47:46;;;;;;;2.55;1.50;;;;;;;;;;6214387;28;20053;-81
2023/07/07 09:51:03;;;;;;;1.85;1.58;;;;;;;;;;6199204;28;20053;-80
2023/07/07 09:54:09;;;;;;;2.75;1.45;;;;;;;;;;6200383;28;20042;-79
2023/07/07 09:57:26;;;;;;;2.13;1.50;;;;;;;;;;6210310;28;20049;-80
2023/07/07 10:00:31;;;;;;;2.08;1.40;;;;;;;;;;6212993;28;20053;-85
2023/07/07 10:03:48;;;;;;;1.95;1.30;;;;;;;;;;6220409;28;20072;-82
2023/07/07 10:07:03;;;;;;;6.85;1.50;;;;;;;;;;6210696;28;20539;-80
2023/07/07 10:10:11;;;;;;;2.22;1.70;;;;;;;;;;6209843;28;20050;-81
2023/07/07 10:13:14;;;;;;;3.38;1.65;;;;;;;;;;6207185;28;20483;-82
2023/07/07 10:16:32;;;;;;;1.83;1.63;;;;;;;;;;6203617;28;20044;-83
2023/07/07 10:19:43;;;;;;;2.70;1.60;;;;;;;;;;6179944;28;20046;-80
2023/07/07 10:22:44;;;;;;;2.05;1.70;;;;;;;;;;6208486;28;20054;-79
2023/07/07 10:25:46;;;;;;;2.53;1.50;;;;;;;;;;6208674;28;20434;-80
2023/07/07 10:28:48;;;;;;;2.83;1.75;;;;;;;;;;6206586;28;20042;-79
2023/07/07 10:31:51;;;;;;;2.55;1.70;;;;;;;;;;6210822;28;20073;-80
2023/07/07 10:34:57;;;;;;;2.63;1.77;;;;;;;;;;6213983;28;20058;-80
2023/07/07 10:38:03;;;;;;;2.80;1.75;;;;;;;;;;6213015;28;20057;-79
2023/07/07 10:41:05;;;;;;;3.03;1.60;;;;;;;;;;6213421;28;20054;-80
2023/07/07 10:44:08;;;;;;;3.28;2.25;;;;;;;;;;6198991;28;20042;-75
2023/07/07 10:47:09;;;;;;;2.75;1.83;;;;;;;;;;6200625;28;20413;-75
2023/07/07 10:50:25;;;;;;;2.15;1.77;;;;;;;;;;6209610;28;20420;-76
2023/07/07 10:53:36;;;;;;;4.55;1.70;;;;;;;;;;6208099;28;20141;-77
2023/07/07 10:56:43;;;;;;;2.65;1.60;;;;;;;;;;6207130;28;20484;-77
2023/07/07 11:00:02;;;;;;;2.15;1.80;;;;;;;;;;6200705;28;20046;-77
2023/07/07 11:03:19;;;;;;;3.55;2.05;;;;;;;;;;6212207;28;20042;-77
2023/07/07 11:06:41;;;;;;;4.55;1.75;;;;;;;;;;6206730;28;20128;-77
2023/07/07 11:10:03;;;;;;;3.60;2.22;;;;;;;;;;6187698;28;20046;-78
2023/07/07 11:13:21;;;;;;;2.47;1.75;;;;;;;;;;6198124;28;20055;-79
2023/07/07 11:17:04;;;;;;;4.68;2.10;;;;;;;;;;6204209;28;20397;-80
2023/07/07 11:20:47;;;;;;;3.65;2.53;;;;;;;;;;6207426;28;20048;-80
2023/07/07 11:24:11;;;;;;;3.57;2.30;;;;;;;;;;6202888;28;20046;-79
2023/07/07 11:27:57;;;;;;;4.32;2.10;;;;;;;;;;6210324;28;20441;-78
2023/07/07 11:31:27;;;;;;;3.25;1.95;;;;;;;;;;6202822;28;20046;-79
2023/07/07 11:34:50;;;;;;;2.60;1.90;;;;;;;;;;6208931;28;20431;-78
2023/07/07 11:38:22;;;;;;;3.83;1.92;;;;;;;;;;6206719;28;20717;-78
2023/07/07 11:41:27;;;;;;;3.70;2.20;;;;;;;;;;6202554;28;20046;-78
2023/07/07 11:45:10;;;;;;;2.50;2.00;;;;;;;;;;6206844;28;20453;-79
2023/07/07 11:48:27;;;;;;;3.10;2.00;;;;;;;;;;6206406;28;20046;-78
2023/07/07 11:51:49;;;;;;;3.10;2.33;;;;;;;;;;6221952;28;20156;-79
2023/07/07 11:55:12;;;;;;;4.10;2.10;;;;;;;;;;6222828;28;20049;-79
2023/07/07 11:58:14;;;;;;;3.50;2.30;;;;;;;;;;6209280;28;20049;-78
2023/07/07 12:01:21;;;;;;;2.05;1.77;;;;;;;;;;6206889;28;20443;-79
2023/07/07 12:04:34;;;;;;;2.55;1.80;;;;;;;;;;6204160;28;20042;-78
2023/07/07 12:07:47;;;;;;;2.55;2.10;;;;;;;;;;6186283;28;20053;-77
2023/07/07 12:10:55;;;;;;;5.10;2.15;;;;;;;;;;6210491;28;20420;-79
2023/07/07 12:14:05;;;;;;;7.40;2.40;;;;;;;;;;6205724;28;20191;-79
2023/07/07 12:17:14;;;;;;;2.97;2.05;;;;;;;;;;6211854;28;20045;-79
2023/07/07 12:20:40;;;;;;;2.22;1.90;;;;;;;;;;6211120;28;20123;-79
2023/07/07 12:24:16;;;;;;;2.47;2.00;;;;;;;;;;6209172;28;20060;-79
2023/07/07 12:27:23;;;;;;;4.50;2.33;;;;;;;;;;6206012;28;20061;-79
2023/07/07 12:30:36;;;;;;;2.80;2.30;;;;;;;;;;6205927;28;20065;-82
2023/07/07 12:33:41;;;;;;;4.35;2.20;;;;;;;;;;6212624;28;20045;-79
2023/07/07 12:36:45;;;;;;;3.97;2.17;;;;;;;;;;6195185;28;20161;-79
2023/07/07 12:40:05;;;;;;;4.90;2.17;;;;;;;;;;6187788;28;20069;-78
2023/07/07 12:43:24;;;;;;;2.95;2.30;;;;;;;;;;6208230;28;20440;-79
2023/07/07 12:46:30;;;;;;;3.40;2.22;;;;;;;;;;6208097;28;20060;-78
2023/07/07 12:49:37;;;;;;;2.40;2.20;;;;;;;;;;6212526;28;20057;-79
2023/07/07 12:52:44;;;;;;;4.97;2.35;;;;;;;;;;6207879;28;20057;-79
2023/07/07 12:56:07;;;;;;;3.08;2.35;;;;;;;;;;6208084;28;20049;-80
2023/07/07 12:59:35;;;;;;;3.53;2.47;;;;;;;;;;6213893;28;20052;-81
2023/07/07 13:02:55;;;;;;;3.72;2.50;;;;;;;;;;6236471;28;20045;-81
2023/07/07 13:06:00;;;;;;;3.33;2.70;;;;;;;;;;6218429;28;20044;-80
2023/07/07 13:09:16;;;;;;;2.45;2.25;;;;;;;;;;6217451;28;20042;-80
2023/07/07 13:12:37;;;;;;;4.15;2.70;;;;;;;;;;6214894;28;20117;-80
2023/07/07 13:15:38;;;;;;;4.32;2.38;;;;;;;;;;6208802;28;20048;-81
2023/07/07 13:18:40;;;;;;;;;;;;;;;;;;6212558;28;20131;-79
2023/07/07 13:21:44;;;;;;;3.10;2.60;;;;;;;;;;6209114;28;19929;-80
2023/07/07 13:24:45;;;;;;;4.93;2.67;;;;;;;;;;6209197;28;20058;-82
2023/07/07 13:27:47;;;;;;;;;;;;;;;;;;6210370;28;20108;-81
2023/07/07 13:30:58;;;;;;;3.83;2.75;;;;;;;;;;6211477;28;19932;-81
2023/07/07 13:34:00;;;;;;;4.70;2.70;;;;;;;;;;6201803;28;20052;-81
2023/07/07 13:37:07;;;;;;;3.22;2.40;;;;;;;;;;6203951;28;20069;-77
2023/07/07 13:40:15;;;;;;;3.85;2.85;;;;;;;;;;6204420;28;20049;-79
2023/07/07 13:43:29;;;;;;;4.03;2.63;;;;;;;;;;6206441;28;20077;-81
2023/07/07 13:46:31;;;;;;;;;;;;;;;;;;6205860;28;20061;-81
2023/07/07 13:49:33;;;;;;;5.72;3.10;;;;;;;;;;6207056;28;19921;-82
2023/07/07 13:52:34;;;;;;;;;;;;;;;;;;6204424;28;20175;-82
2023/07/07 13:55:39;;;;;;;4.22;2.80;;;;;;;;;;6198969;28;20578;-81
2023/07/07 13:58:46;;;;;;;4.47;3.58;;;;;;;;;;6206034;28;20136;-80
2023/07/07 14:01:49;;;;;;;4.03;3.45;;;;;;;;;;6212233;28;20537;-79
2023/07/07 14:04:58;;;;;;;5.38;3.60;;;;;;;;;;6198035;28;20043;-82
2023/07/07 14:08:13;;;;;;;5.13;3.70;;;;;;;;;;6204704;28;20046;-82
2023/07/07 14:11:19;;;;;;;6.10;3.72;;;;;;;;;;6206639;28;20175;-81
2023/07/07 14:14:21;;;;;;;5.43;3.70;;;;;;;;;;6204915;28;20425;-80
2023/07/07 14:17:28;;;;;;;4.22;3.83;;;;;;;;;;6204328;28;20099;-80
2023/07/07 14:20:37;;;;;;;5.05;3.58;;;;;;;;;;6198205;28;20504;-77
2023/07/07 14:23:40;;;;;;;5.95;4.30;;;;;;;;;;6198740;28;20156;-83
2023/07/07 14:26:43;;;;;;;4.38;3.80;;;;;;;;;;6202053;28;20140;-81
2023/07/07 14:29:45;;;;;;;5.32;4.05;;;;;;;;;;6211127;28;20053;-83
2023/07/07 14:32:48;;;;;;;5.40;3.97;;;;;;;;;;6222841;28;20104;-82
2023/07/07 14:35:55;;;;;;;11.07;4.00;;;;;;;;;;6218958;28;20060;-82
2023/07/07 14:39:03;;;;;;;5.97;3.80;;;;;;;;;;6214127;28;20982;-84
2023/07/07 14:42:34;;;;;;;6.00;3.83;;;;;;;;;;6214775;28;20069;-81
2023/07/07 14:45:40;;;;;;;6.60;4.35;;;;;;;;;;6206227;28;20053;-82
2023/07/07 14:48:48;;;;;;;4.97;4.00;;;;;;;;;;6208820;28;20484;-82
2023/07/07 14:51:53;;;;;;;6.28;5.10;;;;;;;;;;6215939;28;20067;-82
2023/07/07 14:55:01;;;;;;;7.63;5.13;;;;;;;;;;6206703;28;20046;-83
2023/07/07 14:58:11;;;;;;;5.90;4.70;;;;;;;;;;6234229;28;20058;-83
2023/07/07 15:01:18;;;;;;;5.95;4.03;;;;;;;;;;6221759;28;20057;-81
2023/07/07 15:04:22;;;;;;;6.63;4.43;;;;;;;;;;6220361;28;20103;-81
2023/07/07 15:07:29;;;;;;;10.43;4.75;;;;;;;;;;6215625;28;20054;-81
2023/07/07 15:10:31;;;;;;;5.72;4.75;;;;;;;;;;6200239;28;20050;-82
2023/07/07 15:13:33;;;;;;;;;;;;;;;;;;6218604;28;20054;-83
2023/07/07 15:16:35;;;;;;;6.60;4.75;;;;;;;;;;6211014;28;19936;-82
2023/07/07 15:19:37;;;;;;;6.88;4.35;;;;;;;;;;6213665;28;20041;-83
2023/07/07 15:22:39;;;;;;;;;;;;;;;;;;6214999;28;20062;-82
2023/07/07 15:25:41;;;;;;;7.82;5.53;;;;;;;;;;6213270;28;19952;-82
2023/07/07 15:28:42;;;;;;;6.60;4.85;;;;;;;;;;6215858;28;20081;-82
2023/07/07 15:31:45;;;;;;;7.85;5.00;;;;;;;;;;6210865;28;20081;-81
2023/07/07 15:34:47;;;;;;;6.90;5.13;;;;;;;;;;6212766;28;20054;-81
2023/07/07 15:37:48;;;;;;;7.00;4.97;;;;;;;;;;6207325;28;20171;-82
2023/07/07 15:40:50;;;;;;;6.63;5.05;;;;;;;;;;6206444;28;20121;-84
2023/07/07 15:43:53;;;;;;;5.85;4.82;;;;;;;;;;6210866;28;20097;-84
2023/07/07 15:46:55;;;;;;;6.93;5.57;;;;;;;;;;6211639;28;20052;-84
2023/07/07 15:49:56;;;;;;;;;;;;;;;;;;6208935;28;20046;-81
2023/07/07 15:52:58;;;;;;;6.43;4.80;;;;;;;;;;6211963;28;19925;-81
2023/07/07 15:56:00;;;;;;;6.82;5.50;;;;;;;;;;6212021;28;20041;-84
2023/07/07 15:59:18;;;;;;;7.35;5.20;;;;;;;;;;6211414;28;20052;-81
2023/07/07 16:02:26;;;;;;;7.30;5.20;;;;;;;;;;6197626;28;20056;-84
2023/07/07 16:05:29;;;;;;;7.00;4.97;;;;;;;;;;6209058;28;20252;-81
2023/07/07 16:08:31;;;;;;;7.75;5.32;;;;;;;;;;6209886;28;20048;-80
2023/07/07 16:11:32;;;;;;;9.05;5.85;;;;;;;;;;6212694;28;20491;-82
2023/07/07 16:14:34;;;;;;;7.93;5.80;;;;;;;;;;6211758;28;20106;-83
2023/07/07 16:17:36;;;;;;;6.72;5.30;;;;;;;;;;6211831;28;20463;-83
2023/07/07 16:20:39;;;;;;;7.20;5.35;;;;;;;;;;6210963;28;20598;-84
2023/07/07 16:23:40;;;;;;;8.38;5.40;;;;;;;;;;6227607;28;20085;-83
2023/07/07 16:26:43;;;;;;;8.43;5.72;;;;;;;;;;6212970;28;20436;-82
2023/07/07 16:29:45;;;;;;;7.63;5.03;;;;;;;;;;6213875;28;20455;-83
2023/07/07 16:32:47;;;;;;;7.72;5.30;;;;;;;;;;6209855;28;20409;-83
2023/07/07 16:35:51;;;;;;;7.03;5.18;;;;;;;;;;6211272;28;20133;-81
2023/07/07 16:38:52;;;;;;;6.68;5.25;;;;;;;;;;6214651;28;20053;-81
2023/07/07 16:41:55;;;;;;;8.95;6.10;;;;;;;;;;6191036;28;20053;-83
2023/07/07 16:44:57;;;;;;;6.63;5.47;;;;;;;;;;6200742;28;20085;-84
2023/07/07 16:47:59;;;;;;;8.25;5.85;;;;;;;;;;6216389;28;20525;-81
2023/07/07 16:51:01;;;;;;;8.10;5.40;;;;;;;;;;6212494;28;20053;-82
2023/07/07 16:54:03;;;;;;;6.88;5.15;;;;;;;;;;6220553;28;20052;-81
2023/07/07 16:57:07;;;;;;;9.10;5.57;;;;;;;;;;6223295;28;20048;-81
2023/07/07 17:00:20;;;;;;;7.40;5.43;;;;;;;;;;6215534;28;20042;-82
2023/07/07 17:03:22;;;;;;;8.00;5.53;;;;;;;;;;6224167;28;20054;-83
2023/07/07 17:06:26;;;;;;;7.20;6.03;;;;;;;;;;6223310;28;20073;-80
2023/07/07 17:09:28;;;;;;;7.63;5.60;;;;;;;;;;6215429;28;20117;-79
2023/07/07 17:12:30;;;;;;;7.75;6.38;;;;;;;;;;6213466;28;20089;-80
2023/07/07 17:15:32;;;;;;;6.95;5.25;;;;;;;;;;6210511;28;20046;-80
2023/07/07 17:18:35;;;;;;;7.57;5.47;;;;;;;;;;6211664;28;20050;-80
2023/07/07 17:21:37;;;;;;;;;;;;;;;;;;6234127;28;20054;-80
2023/07/07 17:24:42;;;;;;;7.22;5.47;;;;;;;;;;6211730;28;20318;-80
2023/07/07 17:27:45;;;;;;;7.10;5.32;;;;;;;;;;6214665;28;20042;-80
2023/07/07 17:30:47;;;;;;;7.43;5.38;;;;;;;;;;6213494;28;20057;-80
2023/07/07 17:33:49;;;;;;;;;;;;;;;;;;6211868;28;20058;-80
2023/07/07 17:36:51;;;;;;;7.55;5.57;;;;;;;;;;6191247;28;19962;-81
2023/07/07 17:39:53;;;;;;;9.30;5.50;;;;;;;;;;6208033;28;20050;-81
2023/07/07 17:42:55;;;;;;;7.97;5.57;;;;;;;;;;6206363;28;20116;-80
2023/07/07 17:45:56;;;;;;;8.88;5.60;;;;;;;;;;6188731;28;20121;-80
2023/07/07 17:49:09;;;;;;;7.20;5.38;;;;;;;;;;6207575;28;20064;-79
2023/07/07 17:52:11;;;;;;;8.70;6.10;;;;;;;;;;6202274;28;20100;-80
2023/07/07 17:55:14;;;;;;;9.18;5.57;;;;;;;;;;6201788;28;20046;-80
2023/07/07 17:58:16;;;;;;;7.82;5.75;;;;;;;;;;6212335;28;20061;-80
2023/07/07 18:01:18;;;;;;;8.13;5.85;;;;;;;;;;6191119;28;20041;-80
2023/07/07 18:04:20;;;;;;;;;;;;;;;;;;6209509;28;20049;-80
2023/07/07 18:07:21;;;;;;;8.27;5.60;;;;;;;;;;6206913;28;19961;-80
2023/07/07 18:10:31;;;;;;;10.05;6.50;;;;;;;;;;6189196;28;20174;-80
2023/07/07 18:13:32;;;;;;;7.85;6.18;;;;;;;;;;6200126;28;20312;-80
2023/07/07 18:16:42;;;;;;;7.60;5.78;;;;;;;;;;6202680;28;20812;-80
2023/07/07 18:19:47;;;;;;;9.65;6.20;;;;;;;;;;6209700;28;20045;-80
2023/07/07 18:23:10;;;;;;;9.27;5.83;;;;;;;;;;6208768;28;20050;-78
2023/07/07 18:26:30;;;;;;;8.55;5.57;;;;;;;;;;6211484;28;20472;-79
2023/07/07 18:29:31;;;;;;;8.95;5.88;;;;;;;;;;6202196;28;20080;-81
2023/07/07 18:32:33;;;;;;;8.52;6.10;;;;;;;;;;6207821;28;20181;-80
2023/07/07 18:35:35;;;;;;;10.45;6.13;;;;;;;;;;6195816;28;20043;-81
2023/07/07 18:38:40;;;;;;;9.02;6.07;;;;;;;;;;6211427;28;20107;-81
2023/07/07 18:41:41;;;;;;;8.55;5.78;;;;;;;;;;6219003;28;20073;-80